createdAt,value
2022-08-16T00:00:56.667Z,7.87
2022-08-16T00:03:23.783Z,5.70
2022-08-16T00:05:57.497Z,6.70
2022-08-16T00:08:35.887Z,5.63
2022-08-16T00:11:04.659Z,6.77
2022-08-16T00:13:32.342Z,6.13
2022-08-16T00:17:01.534Z,5.70
2022-08-16T00:18:55.022Z,7.40
2022-08-16T00:21:21.501Z,6.93
2022-08-16T00:23:49.379Z,5.33
2022-08-16T00:26:36.557Z,8.57
2022-08-16T00:29:02.312Z,6.27
2022-08-16T00:31:59.435Z,6.87
2022-08-16T00:34:18.718Z,7.10
2022-08-16T00:36:47.932Z,9.07
2022-08-16T00:39:15.929Z,10.57
2022-08-16T00:41:43.934Z,10.83
2022-08-16T00:44:13.859Z,7.47
2022-08-16T00:46:52.937Z,9.03
2022-08-16T00:49:39.344Z,10.75
2022-08-16T00:52:29.663Z,7.85
2022-08-16T00:54:56.512Z,9.67
2022-08-16T00:57:23.976Z,10.73
2022-08-16T00:59:59.014Z,9.20
2022-08-16T01:02:31.395Z,8.73
2022-08-16T01:05:10.417Z,9.63
2022-08-16T01:07:50.445Z,10.10
2022-08-16T01:10:18.936Z,9.83
2022-08-16T01:12:45.464Z,11.17
2022-08-16T01:15:13.114Z,10.40
2022-08-16T01:17:42.294Z,8.83
2022-08-16T01:20:23.426Z,7.43
2022-08-16T01:22:55.872Z,9.10
2022-08-16T01:25:33.993Z,7.43
2022-08-16T01:28:02.412Z,13.13
2022-08-16T01:30:31.206Z,8.50
2022-08-16T01:33:02.449Z,10.07
2022-08-16T01:35:45.618Z,10.50
2022-08-16T01:38:19.469Z,12.33
2022-08-16T01:40:46.709Z,8.47
2022-08-16T01:43:13.510Z,10.70
2022-08-16T01:45:42.002Z,8.27
2022-08-16T01:48:19.739Z,8.50
2022-08-16T01:51:09.788Z,9.10
2022-08-16T01:53:36.062Z,10.50
2022-08-16T01:56:07.366Z,7.63
2022-08-16T01:58:50.174Z,9.37
2022-08-16T02:01:16.984Z,9.23
2022-08-16T02:03:44.199Z,8.77
2022-08-16T02:06:17.123Z,6.90
2022-08-16T02:09:01.732Z,7.33
2022-08-16T02:11:47.622Z,10.30
2022-08-16T02:14:18.393Z,10.80
2022-08-16T02:16:48.132Z,8.27
2022-08-16T02:19:16.192Z,8.10
2022-08-16T02:22:08.319Z,8.00
2022-08-16T02:24:31.960Z,9.73
2022-08-16T02:26:59.216Z,8.33
2022-08-16T02:29:31.811Z,6.80
2022-08-16T02:32:04.589Z,10.17
2022-08-16T02:34:45.857Z,8.73
2022-08-16T02:37:16.734Z,8.70
2022-08-16T02:39:47.713Z,10.07
2022-08-16T02:42:20.793Z,9.23
2022-08-16T02:44:47.265Z,9.07
2022-08-16T02:47:24.904Z,8.17
2022-08-16T02:50:52.113Z,15.37
2022-08-16T02:52:38.858Z,10.97
2022-08-16T02:55:05.814Z,13.33
2022-08-16T02:57:33.490Z,10.53
2022-08-16T03:00:01.353Z,9.30
2022-08-16T03:02:47.341Z,8.43
2022-08-16T03:05:22.797Z,8.27
2022-08-16T03:07:50.629Z,7.40
2022-08-16T03:10:18.888Z,10.07
2022-08-16T03:12:56.126Z,8.30
2022-08-16T03:15:23.180Z,7.97
2022-08-16T03:17:53.595Z,9.13
2022-08-16T03:20:20.841Z,8.77
2022-08-16T03:22:59.493Z,12.43
2022-08-16T03:25:26.010Z,9.27
2022-08-16T03:28:09.632Z,11.73
2022-08-16T03:30:38.216Z,7.43
2022-08-16T03:33:05.154Z,8.57
2022-08-16T03:35:35.471Z,9.77
2022-08-16T03:38:04.243Z,7.00
2022-08-16T03:40:33.787Z,7.67
2022-08-16T03:43:20.501Z,6.33
2022-08-16T03:45:47.593Z,7.70
2022-08-16T03:48:14.976Z,9.37
2022-08-16T03:51:00.203Z,10.17
2022-08-16T03:53:37.822Z,6.63
2022-08-16T03:56:07.392Z,13.43
2022-08-16T03:58:34.773Z,7.50
2022-08-16T04:01:04.227Z,13.57
2022-08-16T04:03:31.523Z,6.87
2022-08-16T04:05:59.462Z,5.53
2022-08-16T04:08:27.154Z,8.53
2022-08-16T04:10:54.863Z,6.10
2022-08-16T04:13:59.047Z,6.03
2022-08-16T04:16:09.277Z,6.67
2022-08-16T04:18:54.442Z,6.57
2022-08-16T04:21:29.836Z,5.93
2022-08-16T04:23:56.340Z,5.80
2022-08-16T04:26:22.815Z,8.10
2022-08-16T04:28:53.659Z,5.93
2022-08-16T04:31:36.791Z,7.00
2022-08-16T04:34:03.574Z,5.73
2022-08-16T04:36:30.377Z,4.83
2022-08-16T04:38:58.375Z,6.63
2022-08-16T04:41:32.822Z,6.10
2022-08-16T04:44:31.107Z,7.03
2022-08-16T04:47:02.281Z,10.35
2022-08-16T04:49:43.762Z,15.73
2022-08-16T04:52:44.137Z,17.10
2022-08-16T04:54:59.316Z,8.82
2022-08-16T04:57:26.552Z,9.25
2022-08-16T04:59:56.774Z,7.50
2022-08-16T05:02:42.215Z,9.90
2022-08-16T05:05:17.121Z,9.40
2022-08-16T05:07:58.552Z,12.65
2022-08-16T05:10:27.780Z,9.60
2022-08-16T05:12:54.403Z,7.38
2022-08-16T05:15:23.272Z,9.10
2022-08-16T05:17:58.568Z,11.05
2022-08-16T05:20:35.543Z,11.82
2022-08-16T05:23:11.626Z,11.88
2022-08-16T05:25:41.262Z,14.57
2022-08-16T05:28:15.374Z,13.52
2022-08-16T05:30:43.105Z,10.82
2022-08-16T05:33:16.636Z,14.98
2022-08-16T05:35:43.640Z,10.82
2022-08-16T05:38:32.407Z,8.15
2022-08-16T05:41:00.202Z,7.75
2022-08-16T05:43:27.417Z,12.15
2022-08-16T05:45:59.384Z,7.80
2022-08-16T05:48:27.000Z,11.32
2022-08-16T05:50:54.169Z,11.27
2022-08-16T05:53:22.165Z,9.98
2022-08-16T05:55:51.089Z,8.90
2022-08-16T05:58:19.983Z,7.90
2022-08-16T06:00:58.676Z,7.78
2022-08-16T06:03:25.171Z,10.65
2022-08-16T06:05:51.663Z,10.02
2022-08-16T06:08:32.059Z,10.88
2022-08-16T06:11:09.613Z,13.57
2022-08-16T06:13:47.681Z,8.06
2022-08-16T06:16:18.024Z,7.05
2022-08-16T06:18:45.303Z,12.00
2022-08-16T06:21:23.793Z,8.00
2022-08-16T06:23:51.118Z,10.15
2022-08-16T06:26:20.948Z,13.60
2022-08-16T06:28:47.626Z,10.95
2022-08-16T06:31:16.626Z,11.27
2022-08-16T06:33:44.646Z,10.75
2022-08-16T06:36:14.347Z,9.75
2022-08-16T06:38:55.740Z,8.93
2022-08-16T06:41:22.789Z,11.48
2022-08-16T06:43:51.331Z,8.48
2022-08-16T06:46:31.936Z,6.43
2022-08-16T06:48:59.096Z,12.90
2022-08-16T06:51:45.661Z,6.88
2022-08-16T06:54:14.037Z,8.65
2022-08-16T06:56:40.969Z,7.68
2022-08-16T06:59:09.061Z,8.52
2022-08-16T07:01:45.220Z,6.28
2022-08-16T07:04:31.761Z,6.68
2022-08-16T07:07:00.499Z,5.50
2022-08-16T07:09:29.843Z,6.68
2022-08-16T07:12:03.972Z,5.78
2022-08-16T07:14:33.115Z,10.20
2022-08-16T07:16:59.773Z,6.15
2022-08-16T07:19:33.639Z,5.90
2022-08-16T07:22:47.682Z,6.75
2022-08-16T07:25:01.552Z,6.38
2022-08-16T07:27:28.328Z,9.10
2022-08-16T07:29:58.507Z,5.80
2022-08-16T07:32:29.136Z,6.28
2022-08-16T07:34:56.604Z,7.15
2022-08-16T07:37:24.176Z,5.00
2022-08-16T07:39:51.672Z,4.60
2022-08-16T07:42:20.135Z,5.20
2022-08-16T07:44:55.321Z,4.53
2022-08-16T07:47:24.748Z,5.10
2022-08-16T07:49:58.919Z,4.97
2022-08-16T07:52:29.704Z,5.65
2022-08-16T07:54:56.984Z,4.38
2022-08-16T07:57:24.283Z,6.20
2022-08-16T07:59:50.977Z,4.88
2022-08-16T08:02:19.989Z,4.90
2022-08-16T08:04:47.628Z,5.30
2022-08-16T08:07:16.324Z,4.93
2022-08-16T08:09:43.800Z,5.72
2022-08-16T08:12:32.303Z,4.57
2022-08-16T08:14:57.169Z,6.05
2022-08-16T08:17:23.723Z,5.30
2022-08-16T08:19:53.192Z,6.43
2022-08-16T08:22:22.110Z,7.93
2022-08-16T08:24:49.984Z,4.50
2022-08-16T08:27:22.959Z,5.53
2022-08-16T08:30:49.222Z,6.63
2022-08-16T08:32:58.863Z,6.80
2022-08-16T08:35:26.918Z,7.97
2022-08-16T08:37:56.280Z,4.68
2022-08-16T08:40:24.532Z,4.63
2022-08-16T08:42:57.756Z,5.40
2022-08-16T08:45:48.295Z,6.32
2022-08-16T08:48:33.791Z,5.85
2022-08-16T08:50:59.730Z,7.75
2022-08-16T08:53:30.659Z,4.97
2022-08-16T08:55:59.222Z,6.00
2022-08-16T08:58:34.049Z,4.50
2022-08-16T09:01:01.683Z,6.80
2022-08-16T09:03:28.721Z,4.53
2022-08-16T09:05:59.438Z,6.50
2022-08-16T09:08:27.304Z,5.13
2022-08-16T09:10:58.855Z,6.90
2022-08-16T09:13:32.605Z,5.30
2022-08-16T09:15:59.589Z,4.00
2022-08-16T09:18:35.325Z,7.93
2022-08-16T09:21:03.028Z,7.25
2022-08-16T09:23:36.390Z,4.97
2022-08-16T09:26:45.222Z,5.20
2022-08-16T09:29:15.721Z,4.70
2022-08-16T09:31:41.168Z,6.20
2022-08-16T09:34:09.259Z,4.10
2022-08-16T09:36:37.336Z,4.50
2022-08-16T09:39:16.003Z,4.90
2022-08-16T09:41:43.219Z,6.15
2022-08-16T09:45:11.421Z,4.85
2022-08-16T09:47:11.118Z,4.68
2022-08-16T09:49:40.855Z,5.45
2022-08-16T09:52:09.504Z,4.18
2022-08-16T09:54:37.014Z,5.15
2022-08-16T09:57:04.271Z,5.10
2022-08-16T09:59:31.460Z,4.45
2022-08-16T10:02:26.228Z,5.35
2022-08-16T10:04:54.533Z,5.20
2022-08-16T10:07:22.121Z,4.93
2022-08-16T10:09:55.018Z,5.90
2022-08-16T10:12:55.404Z,4.75
2022-08-16T10:15:23.303Z,6.20
2022-08-16T10:18:00.927Z,5.03
2022-08-16T10:20:29.812Z,4.20
2022-08-16T10:23:03.572Z,4.93
2022-08-16T10:27:19.389Z,3.88
2022-08-16T10:28:28.529Z,4.50
2022-08-16T10:30:56.293Z,5.00
2022-08-16T10:33:27.237Z,5.47
2022-08-16T10:36:02.577Z,4.63
2022-08-16T10:38:30.335Z,4.78
2022-08-16T10:41:00.281Z,4.82
2022-08-16T10:43:26.965Z,4.10
2022-08-16T10:46:00.121Z,7.82
2022-08-16T10:48:28.829Z,6.88
2022-08-16T10:50:58.721Z,9.00
2022-08-16T10:53:33.141Z,4.47
2022-08-16T10:56:01.585Z,7.85
2022-08-16T10:58:34.275Z,5.07
2022-08-16T11:01:25.059Z,5.45
2022-08-16T11:03:49.133Z,4.57
2022-08-16T11:06:21.632Z,10.70
2022-08-16T11:14:27.301Z,4.88
2022-08-16T11:17:02.636Z,4.05
2022-08-16T11:20:00.732Z,4.22
2022-08-16T11:22:47.153Z,7.20
2022-08-16T11:25:16.205Z,3.53
2022-08-16T11:27:57.031Z,4.18
2022-08-16T11:30:37.716Z,3.78
2022-08-16T11:33:06.261Z,4.35
2022-08-16T11:38:46.479Z,3.60
2022-08-16T11:41:08.774Z,2.92
2022-08-16T11:43:38.074Z,3.50
2022-08-16T11:46:07.828Z,3.75
2022-08-16T11:48:55.782Z,4.28
2022-08-16T11:51:22.279Z,4.13
2022-08-16T11:53:48.830Z,4.38
2022-08-16T11:56:15.337Z,3.80
2022-08-16T11:58:51.743Z,3.53
2022-08-16T12:01:29.586Z,3.45
2022-08-16T12:04:11.138Z,5.45
2022-08-16T12:06:42.371Z,5.00
2022-08-16T12:09:11.297Z,4.57
2022-08-16T12:11:39.058Z,4.72
2022-08-16T12:14:07.341Z,4.75
2022-08-16T12:16:34.968Z,3.67
2022-08-16T12:19:06.191Z,3.35
2022-08-16T12:21:58.253Z,3.90
2022-08-16T12:24:23.837Z,3.60
2022-08-16T12:26:50.484Z,3.53
2022-08-16T12:29:17.161Z,3.25
2022-08-16T12:32:00.726Z,4.30
2022-08-16T12:34:29.586Z,4.75
2022-08-16T12:36:56.367Z,4.03
2022-08-16T12:39:23.485Z,3.72
2022-08-16T12:41:56.330Z,4.30
2022-08-16T12:44:25.114Z,3.83
2022-08-16T12:47:11.744Z,4.00
2022-08-16T12:49:42.117Z,5.40
2022-08-16T12:52:09.052Z,3.75
2022-08-16T12:54:37.457Z,3.22
2022-08-16T12:57:14.233Z,4.43
2022-08-16T12:59:42.656Z,4.15
2022-08-16T13:02:12.565Z,4.15
2022-08-16T13:04:49.516Z,3.90
2022-08-16T13:07:18.138Z,4.63
2022-08-16T13:09:58.353Z,3.30
2022-08-16T13:12:26.773Z,3.38
2022-08-16T13:14:53.695Z,3.33
2022-08-16T13:17:23.925Z,2.83
2022-08-16T13:20:07.157Z,4.97
2022-08-16T13:22:36.278Z,2.85
2022-08-16T13:25:02.872Z,6.55
2022-08-16T13:27:59.344Z,2.80
2022-08-16T13:30:35.593Z,3.33
2022-08-16T13:33:11.449Z,3.70
2022-08-16T13:35:46.323Z,3.45
2022-08-16T13:38:25.480Z,3.72
2022-08-16T13:40:53.623Z,2.92
2022-08-16T13:43:23.393Z,3.83
2022-08-16T13:45:50.441Z,2.88
2022-08-16T13:48:21.772Z,4.18
2022-08-16T13:50:52.177Z,2.95
2022-08-16T13:53:18.918Z,3.42
2022-08-16T13:55:59.017Z,3.05
2022-08-16T13:58:36.916Z,3.50
2022-08-16T14:01:13.174Z,3.10
2022-08-16T14:03:39.891Z,2.70
2022-08-16T14:06:07.563Z,3.90
2022-08-16T14:08:41.847Z,2.95
2022-08-16T14:11:11.886Z,2.95
2022-08-16T14:13:39.233Z,3.72
2022-08-16T14:16:12.498Z,3.08
2022-08-16T14:18:50.197Z,4.00
2022-08-16T14:21:19.471Z,2.90
2022-08-16T14:23:48.697Z,4.22
2022-08-16T14:26:15.245Z,3.35
2022-08-16T14:28:41.790Z,3.42
2022-08-16T14:31:09.440Z,3.67
2022-08-16T14:33:36.204Z,3.42
2022-08-16T14:36:02.724Z,3.50
2022-08-16T14:38:29.703Z,3.55
2022-08-16T14:41:04.156Z,3.88
2022-08-16T14:43:36.739Z,4.97
2022-08-16T14:46:07.571Z,3.78
2022-08-16T14:48:34.364Z,4.30
2022-08-16T14:51:01.131Z,4.47
2022-08-16T14:53:28.187Z,5.88
2022-08-16T14:55:54.795Z,4.18
2022-08-16T14:58:35.026Z,4.25
2022-08-16T15:01:03.991Z,3.85
2022-08-16T15:03:32.943Z,4.72
2022-08-16T15:06:00.483Z,7.68
2022-08-16T15:08:36.919Z,3.80
2022-08-16T15:11:04.021Z,4.00
2022-08-16T15:13:30.513Z,4.57
2022-08-16T15:16:02.312Z,4.78
2022-08-16T15:18:31.811Z,4.47
2022-08-16T15:20:59.347Z,4.35
2022-08-16T15:23:25.880Z,5.13
2022-08-16T15:26:03.027Z,4.45
2022-08-16T15:28:32.235Z,3.53
2022-08-16T15:31:03.690Z,5.07
2022-08-16T15:33:32.451Z,4.20
2022-08-16T15:35:59.455Z,6.43
2022-08-16T15:38:57.693Z,3.58
2022-08-16T15:41:29.136Z,4.03
2022-08-16T15:44:05.184Z,4.05
2022-08-16T15:46:57.208Z,3.08
2022-08-16T15:49:23.695Z,3.53
2022-08-16T15:51:51.851Z,3.28
2022-08-16T15:54:29.692Z,4.03
2022-08-16T15:57:00.314Z,6.22
2022-08-16T15:59:48.076Z,3.83
2022-08-16T16:02:18.503Z,4.25
2022-08-16T16:04:54.393Z,4.00
2022-08-16T16:07:21.859Z,3.40
2022-08-16T16:09:48.657Z,3.58
2022-08-16T16:12:51.629Z,3.08
2022-08-16T16:15:06.525Z,4.68
2022-08-16T16:17:33.990Z,3.17
2022-08-16T16:20:02.452Z,4.15
2022-08-16T16:22:30.100Z,4.10
2022-08-16T16:24:56.553Z,2.90
2022-08-16T16:27:24.077Z,3.55
2022-08-16T16:29:58.044Z,5.18
2022-08-16T16:32:34.245Z,3.75
2022-08-16T16:35:00.989Z,5.78
2022-08-16T16:37:27.571Z,3.22
2022-08-16T16:39:54.404Z,3.50
2022-08-16T16:42:29.686Z,4.40
2022-08-16T16:45:01.248Z,4.38
2022-08-16T16:47:29.073Z,4.00
2022-08-16T16:49:55.551Z,4.10
2022-08-16T16:52:43.611Z,6.93
2022-08-16T16:55:09.501Z,5.75
2022-08-16T16:57:55.555Z,4.15
2022-08-16T17:00:25.654Z,4.80
2022-08-16T17:02:57.025Z,4.57
2022-08-16T17:05:26.583Z,3.65
2022-08-16T17:07:55.720Z,3.83
2022-08-16T17:10:46.110Z,4.47
2022-08-16T17:13:08.961Z,4.95
2022-08-16T17:15:36.879Z,3.65
2022-08-16T17:18:04.450Z,6.40
2022-08-16T17:20:50.212Z,13.45
2022-08-16T17:23:19.838Z,4.43
2022-08-16T17:25:46.317Z,3.83
2022-08-16T17:28:58.603Z,8.00
2022-08-16T17:31:05.493Z,4.85
2022-08-16T17:33:37.186Z,5.70
2022-08-16T17:36:08.561Z,9.23
2022-08-16T17:38:43.696Z,5.47
2022-08-16T17:41:12.071Z,5.93
2022-08-16T17:43:44.307Z,5.13
2022-08-16T17:46:51.374Z,4.43
2022-08-16T17:48:58.476Z,6.53
2022-08-16T17:51:28.572Z,6.35
2022-08-16T17:53:55.184Z,4.40
2022-08-16T17:56:21.639Z,4.03
2022-08-16T17:58:48.084Z,5.50
2022-08-16T18:01:14.662Z,4.05
2022-08-16T18:04:07.403Z,7.00
2022-08-16T18:06:28.660Z,5.30
2022-08-16T18:09:01.665Z,5.22
2022-08-16T18:11:32.961Z,5.88
2022-08-16T18:13:59.549Z,6.30
2022-08-16T18:16:26.057Z,4.75
2022-08-16T18:18:52.704Z,4.75
2022-08-16T18:21:37.810Z,5.75
2022-08-16T18:24:04.725Z,4.88
2022-08-16T18:26:32.277Z,6.63
2022-08-16T18:28:58.790Z,7.10
2022-08-16T18:31:25.598Z,5.95
2022-08-16T18:33:55.587Z,5.32
2022-08-16T18:36:22.456Z,4.53
2022-08-16T18:38:49.730Z,5.25
2022-08-16T18:41:16.477Z,5.85
2022-08-16T18:43:54.712Z,8.82
2022-08-16T18:46:29.443Z,6.70
2022-08-16T18:48:55.940Z,7.38
2022-08-16T18:51:25.170Z,6.05
2022-08-16T18:53:52.100Z,4.82
2022-08-16T18:56:18.568Z,6.22
2022-08-16T18:58:45.016Z,5.70
2022-08-16T19:01:11.600Z,4.40
2022-08-16T19:03:38.126Z,5.45
2022-08-16T19:06:11.283Z,4.82
2022-08-16T19:08:40.034Z,4.68
2022-08-16T19:11:09.413Z,4.45
2022-08-16T19:13:36.280Z,10.73
2022-08-16T19:16:04.789Z,8.90
2022-08-16T19:18:36.609Z,5.88
2022-08-16T19:21:03.865Z,4.45
2022-08-16T19:23:34.020Z,6.32
2022-08-16T19:26:05.024Z,4.75
2022-08-16T19:28:51.911Z,4.88
2022-08-16T19:31:22.490Z,5.60
2022-08-16T19:33:54.274Z,5.15
2022-08-16T19:36:30.970Z,3.50
2022-08-16T19:39:04.677Z,3.78
2022-08-16T19:41:32.279Z,3.40
2022-08-16T19:43:58.819Z,4.43
2022-08-16T19:46:25.476Z,3.78
2022-08-16T19:48:51.955Z,5.28
2022-08-16T19:51:18.481Z,3.78
2022-08-16T19:53:45.017Z,3.90
2022-08-16T19:56:11.853Z,4.30
2022-08-16T19:58:50.966Z,3.10
2022-08-16T20:01:25.408Z,3.53
2022-08-16T20:03:51.990Z,4.72
2022-08-16T20:06:37.907Z,4.68
2022-08-16T20:09:05.276Z,5.97
2022-08-16T20:11:31.794Z,4.35
2022-08-16T20:13:59.335Z,3.45
2022-08-16T20:16:25.883Z,4.05
2022-08-16T20:18:52.633Z,5.50
2022-08-16T20:21:19.566Z,3.95
2022-08-16T20:23:46.344Z,3.00
2022-08-16T20:26:12.814Z,3.53
2022-08-16T20:28:53.018Z,3.10
2022-08-16T20:31:24.812Z,3.22
2022-08-16T20:33:52.249Z,3.83
2022-08-16T20:36:18.717Z,4.05
2022-08-16T20:38:47.393Z,2.83
2022-08-16T20:41:14.268Z,3.53
2022-08-16T20:43:40.824Z,4.63
2022-08-16T20:46:07.377Z,4.85
2022-08-16T20:48:33.866Z,4.15
2022-08-16T20:51:00.376Z,3.30
2022-08-16T20:53:26.879Z,3.42
2022-08-16T20:55:53.575Z,5.75
2022-08-16T20:58:20.079Z,3.53
2022-08-16T21:00:47.358Z,3.78
2022-08-16T21:03:14.468Z,3.50
2022-08-16T21:05:41.293Z,5.03
2022-08-16T21:08:28.676Z,4.47
2022-08-16T21:10:56.754Z,2.97
2022-08-16T21:13:25.887Z,4.20
2022-08-16T21:15:53.077Z,3.53
2022-08-16T21:18:19.827Z,4.32
2022-08-16T21:20:46.764Z,5.47
2022-08-16T21:23:13.576Z,3.33
2022-08-16T21:25:57.756Z,3.17
2022-08-16T21:28:41.652Z,3.85
2022-08-16T21:31:14.094Z,8.85
2022-08-16T21:33:41.256Z,5.90
2022-08-16T21:36:08.189Z,4.03
2022-08-16T21:38:35.030Z,3.65
2022-08-16T21:41:03.405Z,3.67
2022-08-16T21:43:33.247Z,4.95
2022-08-16T21:46:01.312Z,3.75
2022-08-16T21:48:33.887Z,3.60
2022-08-16T21:51:08.367Z,3.75
2022-08-16T21:53:35.676Z,4.93
2022-08-16T21:56:02.720Z,3.85
2022-08-16T21:58:30.523Z,4.75
2022-08-16T22:00:57.728Z,2.97
2022-08-16T22:03:27.278Z,3.42
2022-08-16T22:06:13.365Z,3.40
2022-08-16T22:08:49.285Z,3.72
2022-08-16T22:11:17.036Z,2.95
2022-08-16T22:13:49.247Z,4.05
2022-08-16T22:16:25.484Z,4.65
2022-08-16T22:18:52.752Z,3.17
2022-08-16T22:21:19.685Z,3.97
2022-08-16T22:23:58.243Z,3.60
2022-08-16T22:26:32.369Z,4.47
2022-08-16T22:29:04.659Z,3.78
2022-08-16T22:31:31.356Z,3.97
2022-08-16T22:33:58.046Z,3.15
2022-08-16T22:36:28.287Z,4.35
2022-08-16T22:38:59.829Z,5.07
2022-08-16T22:41:27.740Z,3.72
2022-08-16T22:43:54.291Z,3.63
2022-08-16T22:46:20.883Z,5.32
2022-08-16T22:48:50.456Z,3.33
2022-08-16T22:51:17.891Z,4.13
2022-08-16T22:53:44.405Z,3.78
2022-08-16T22:56:10.974Z,3.50
2022-08-16T22:58:37.514Z,4.25
2022-08-16T23:01:08.426Z,3.50
2022-08-16T23:03:36.109Z,4.93
2022-08-16T23:06:02.977Z,4.55
2022-08-16T23:08:34.996Z,4.15
2022-08-16T23:11:14.424Z,5.25
2022-08-16T23:13:52.728Z,5.87
2022-08-16T23:16:21.767Z,3.43
2022-08-16T23:18:49.476Z,4.97
2022-08-16T23:21:17.610Z,3.33
2022-08-16T23:23:46.287Z,3.70
2022-08-16T23:26:36.327Z,4.70
2022-08-16T23:29:04.669Z,3.33
2022-08-16T23:31:32.535Z,5.25
2022-08-16T23:33:59.584Z,6.40
2022-08-16T23:36:26.097Z,4.80
2022-08-16T23:38:52.639Z,6.30
2022-08-16T23:41:19.118Z,8.23
2022-08-16T23:43:45.611Z,5.38
2022-08-16T23:46:15.040Z,3.42
2022-08-16T23:49:59.139Z,4.17
2022-08-16T23:51:29.067Z,4.28
2022-08-16T23:53:55.753Z,6.53
2022-08-16T23:56:22.349Z,4.53
2022-08-16T23:58:54.299Z,3.45
